Time;durP1;ratioP1;P1;durP2;ratioP2;P2;SDS_P1;SDS_P2;PMS_P1;PMS_P2;Temp;Humidity;BMP_temperature;BMP_pressure;BME280_temperature;BME280_humidity;BME280_pressure;Samples;Min_cycle;Max_cycle;Signal;HPM_P1;HPM_P2
2022/03/21 00:00:53;;;;;;;;;;;;;;;0.86;59.22;102092.84;4423465;32;20007;-86
2022/03/21 00:03:20;;;;;;;;;;;;;;;0.70;59.22;102098.97;4422078;32;20353;-87
2022/03/21 00:05:46;;;;;;;;;;;;;;;0.99;59.23;102094.28;4422184;32;20047;-87
2022/03/21 00:08:11;;;;;;;;;;;;;;;0.85;59.23;102088.53;4422093;32;20380;-88
2022/03/21 00:10:36;;;;;;;;;;;;;;;0.58;59.21;102091.59;4422268;32;19978;-87
2022/03/21 00:13:02;;;;;;;;;;;;;;;0.79;59.22;102091.72;4422241;32;20029;-89
2022/03/21 00:15:29;;;;;;;;;;;;;;;0.75;59.23;102079.56;4422382;32;20001;-89
2022/03/21 00:17:54;;;;;;;;;;;;;;;0.87;59.22;102085.22;4422065;32;19994;-88
2022/03/21 00:20:19;;;;;;;;;;;;;;;0.80;59.22;102083.22;4423194;32;20611;-89
2022/03/21 00:22:45;;;;;;;;;;;;;;;0.64;59.21;102095.25;4422053;32;19982;-89
2022/03/21 00:25:10;;;;;;;;;;;;;;;0.81;59.22;102089.22;4421285;32;29812;-89
2022/03/21 00:27:35;;;;;;;;;;;;;;;0.75;59.22;102087.25;4423237;32;20001;-89
2022/03/21 00:30:01;;;;;;;;;;;;;;;0.69;59.22;102094.66;4422130;32;20212;-89
2022/03/21 00:32:26;;;;;;;;;;;;;;;0.89;59.23;102086.16;4421683;32;20355;-88
2022/03/21 00:34:51;;;;;;;;;;;;;;;0.75;59.23;102086.38;4421996;32;19989;-89
2022/03/21 00:37:16;;;;;;;;;;;;;;;0.82;59.23;102093.53;4422376;32;30338;-89
2022/03/21 00:39:42;;;;;;;;;;;;;;;0.74;59.22;102082.94;4422595;32;20032;-89
2022/03/21 00:42:10;;;;;;;;;;;;;;;0.78;59.23;102082.25;4408912;32;20278;-89
2022/03/21 00:44:35;;;;;;;;;;;;;;;0.77;59.22;102077.06;4421768;32;19989;-88
2022/03/21 00:47:00;;;;;;;;;;;;;;;0.59;59.21;102079.66;4421704;32;20040;-90
2022/03/21 00:49:25;;;;;;;;;;;;;;;0.62;59.21;102084.94;4421822;32;25933;-89
2022/03/21 00:51:51;;;;;;;;;;;;;;;0.62;59.22;102080.69;4422214;32;20311;-88
2022/03/21 00:54:16;;;;;;;;;;;;;;;0.64;59.22;102074.75;4421747;32;19993;-89
2022/03/21 00:56:41;;;;;;;;;;;;;;;0.66;59.22;102074.00;4420802;32;30449;-88
2022/03/21 00:59:07;;;;;;;;;;;;;;;0.56;59.21;102075.28;4420790;32;26858;-88
2022/03/21 01:01:32;;;;;;;;;;;;;;;0.49;59.20;102083.50;4422329;32;20081;-88
2022/03/21 01:03:57;;;;;;;;;;;;;;;0.57;59.21;102073.59;4421186;32;20392;-88
2022/03/21 01:06:23;;;;;;;;;;;;;;;0.56;59.21;102071.84;4420704;32;29536;-89
2022/03/21 01:08:48;;;;;;;;;;;;;;;0.52;59.21;102070.84;4422862;32;20319;-88
2022/03/21 01:11:13;;;;;;;;;;;;;;;0.40;59.20;102074.50;4420820;32;22626;-87
2022/03/21 01:13:41;;;;;;;;;;;;;;;0.47;59.20;102074.84;4421480;32;20002;-88
2022/03/21 01:16:06;;;;;;;;;;;;;;;0.39;59.20;102072.75;4408393;32;19997;-88
2022/03/21 01:18:32;;;;;;;;;;;;;;;0.52;59.20;102072.53;4421783;32;20010;-88
2022/03/21 01:20:57;;;;;;;;;;;;;;;0.53;59.21;102074.28;4422207;32;20005;-88
2022/03/21 01:23:22;;;;;;;;;;;;;;;0.38;59.20;102071.00;4422508;32;20314;-89
2022/03/21 01:25:47;;;;;;;;;;;;;;;0.29;59.19;102072.34;4407743;32;19994;-89
2022/03/21 01:28:13;;;;;;;;;;;;;;;0.32;59.20;102070.72;4422151;32;21656;-86
2022/03/21 01:30:38;;;;;;;;;;;;;;;0.22;59.18;102075.38;4420844;32;20004;-87
2022/03/21 01:33:03;;;;;;;;;;;;;;;0.09;59.18;102075.62;4408253;32;20357;-87
2022/03/21 01:35:28;;;;;;;;;;;;;;;0.18;59.19;102067.50;4420827;32;20307;-87
2022/03/21 01:37:54;;;;;;;;;;;;;;;0.10;59.18;102071.38;4420898;32;20298;-87
2022/03/21 01:40:19;;;;;;;;;;;;;;;0.11;59.19;102063.78;4421041;32;20006;-87
2022/03/21 01:42:46;;;;;;;;;;;;;;;0.27;59.19;102068.81;4420551;32;20017;-87
2022/03/21 01:45:12;;;;;;;;;;;;;;;0.01;59.19;102076.97;4420878;32;19966;-86
2022/03/21 01:47:37;;;;;;;;;;;;;;;0.24;59.19;102063.56;4422271;32;20042;-88
2022/03/21 01:50:03;;;;;;;;;;;;;;;0.06;59.18;102067.81;4422316;32;19982;-88
2022/03/21 01:52:28;;;;;;;;;;;;;;;0.11;59.18;102061.22;4420994;32;20353;-87
2022/03/21 01:57:37;;;;;;;;;;;;;;;0.21;59.19;102068.50;4425891;32;19985;-88
2022/03/21 02:00:03;;;;;;;;;;;;;;;0.23;59.19;102060.91;4422872;32;19986;-89
2022/03/21 02:02:29;;;;;;;;;;;;;;;0.21;59.19;102055.72;4422905;32;19993;-89
2022/03/21 02:04:54;;;;;;;;;;;;;;;0.06;59.18;102066.94;4422522;32;21616;-88
2022/03/21 02:07:19;;;;;;;;;;;;;;;0.23;59.19;102060.91;4423987;32;19978;-88
2022/03/21 02:09:44;;;;;;;;;;;;;;;0.32;59.20;102055.34;4422511;32;19985;-88
2022/03/21 02:12:10;;;;;;;;;;;;;;;0.21;59.18;102057.41;4422858;32;20009;-88
2022/03/21 02:14:39;;;;;;;;;;;;;;;0.32;59.20;102045.97;4422669;32;19993;-88
2022/03/21 02:17:04;;;;;;;;;;;;;;;0.18;59.19;102050.44;4423392;32;19993;-88
2022/03/21 02:19:30;;;;;;;;;;;;;;;0.06;59.18;102049.88;4422677;32;20013;-89
2022/03/21 02:21:56;;;;;;;;;;;;;;;0.18;59.19;102047.88;4422660;32;19993;-88
2022/03/21 02:24:25;;;;;;;;;;;;;;;0.07;59.18;102045.66;4422660;32;19990;-87
2022/03/21 02:26:50;;;;;;;;;;;;;;;0.13;59.18;102045.91;4423126;32;20002;-87
2022/03/21 02:29:16;;;;;;;;;;;;;;;0.21;59.19;102042.91;4422722;32;20049;-86
2022/03/21 02:31:41;;;;;;;;;;;;;;;0.21;59.19;102048.03;4422383;32;21183;-87
2022/03/21 02:34:06;;;;;;;;;;;;;;;0.15;59.18;102046.87;4422102;32;27547;-88
2022/03/21 02:36:31;;;;;;;;;;;;;;;0.23;59.19;102041.28;4423296;32;19980;-88
2022/03/21 02:38:57;;;;;;;;;;;;;;;0.11;59.18;102034.72;4423775;32;20017;-88
2022/03/21 02:41:22;;;;;;;;;;;;;;;0.12;59.18;102046.72;4422561;32;20025;-88
2022/03/21 02:43:54;;;;;;;;;;;;;;;0.06;59.18;102036.22;4422367;32;19990;-86
2022/03/21 02:46:19;;;;;;;;;;;;;;;0.15;59.18;102040.06;4422642;32;20050;-87
2022/03/21 02:48:46;;;;;;;;;;;;;;;-0.11;59.17;102041.41;4422630;32;19982;-86
2022/03/21 02:51:11;;;;;;;;;;;;;;;-0.13;59.17;102037.00;4422390;32;19993;-87
2022/03/21 02:53:38;;;;;;;;;;;;;;;-0.43;59.16;102042.41;4422143;32;20012;-87
2022/03/21 02:56:03;;;;;;;;;;;;;;;-0.42;59.15;102044.16;4422362;32;19970;-85
2022/03/21 02:58:28;;;;;;;;;;;;;;;-0.34;59.16;102035.16;4426137;32;20009;-85
2022/03/21 03:01:05;;;;;;;;;;;;;;;-0.32;59.16;102037.81;4423901;32;20275;-86
2022/03/21 03:03:30;;;;;;;;;;;;;;;-0.44;59.15;102040.66;4423800;32;20426;-86
2022/03/21 03:05:55;;;;;;;;;;;;;;;-0.39;59.15;102038.31;4421927;32;30112;-86
2022/03/21 03:08:20;;;;;;;;;;;;;;;-0.19;59.17;102039.28;4421558;32;32919;-87
2022/03/21 03:10:45;;;;;;;;;;;;;;;-0.38;59.15;102038.38;4421996;32;20013;-86
2022/03/21 03:13:11;;;;;;;;;;;;;;;-0.42;59.15;102040.72;4422469;32;20365;-87
2022/03/21 03:15:36;;;;;;;;;;;;;;;-0.24;59.16;102038.16;4423285;32;19992;-86
2022/03/21 03:18:01;;;;;;;;;;;;;;;-0.22;59.15;102034.03;4409576;32;20020;-87
2022/03/21 03:20:26;;;;;;;;;;;;;;;-0.28;59.16;102033.72;4422468;32;19989;-86
2022/03/21 03:22:52;;;;;;;;;;;;;;;-0.38;59.15;102033.28;4422015;32;20051;-86
2022/03/21 03:25:17;;;;;;;;;;;;;;;-0.38;59.15;102040.06;4422153;32;19982;-85
2022/03/21 03:27:42;;;;;;;;;;;;;;;-0.49;59.15;102036.97;4422451;32;20021;-86
2022/03/21 03:30:08;;;;;;;;;;;;;;;-0.31;59.16;102039.56;4423631;32;20334;-86
2022/03/21 03:32:33;;;;;;;;;;;;;;;-0.22;59.16;102036.59;4423685;32;20025;-86
2022/03/21 03:34:58;;;;;;;;;;;;;;;-0.41;59.15;102039.94;4422464;32;19996;-86
2022/03/21 03:37:23;;;;;;;;;;;;;;;-0.41;59.15;102037.37;4422347;32;20350;-86
2022/03/21 03:39:49;;;;;;;;;;;;;;;-0.58;59.13;102045.88;4421745;32;30048;-87
2022/03/21 03:42:14;;;;;;;;;;;;;;;-0.63;59.14;102045.66;4421865;32;23848;-87
2022/03/21 03:44:40;;;;;;;;;;;;;;;-0.64;59.14;102044.78;4422502;32;20019;-86
2022/03/21 03:47:05;;;;;;;;;;;;;;;-0.57;59.15;102050.19;4422331;32;19990;-87
2022/03/21 03:49:30;;;;;;;;;;;;;;;-0.59;59.14;102047.56;4409482;32;20291;-87
2022/03/21 03:51:55;;;;;;;;;;;;;;;-0.60;59.14;102056.03;4422138;32;20055;-86
2022/03/21 03:54:21;;;;;;;;;;;;;;;-0.77;59.13;102056.87;4422297;32;19978;-87
2022/03/21 03:56:46;;;;;;;;;;;;;;;-0.77;59.13;102056.87;4421664;32;20375;-88
2022/03/21 03:59:11;;;;;;;;;;;;;;;-0.96;59.12;102060.16;4421964;32;21750;-88
2022/03/21 04:01:38;;;;;;;;;;;;;;;-0.91;59.12;102063.84;4422898;32;31595;-88
2022/03/21 04:04:03;;;;;;;;;;;;;;;-0.86;59.12;102066.63;4422433;32;20298;-89
2022/03/21 04:06:28;;;;;;;;;;;;;;;-0.78;59.13;102061.09;4423520;32;19978;-87
2022/03/21 04:08:54;;;;;;;;;;;;;;;-0.85;59.13;102060.72;4422218;32;20033;-88
2022/03/21 04:11:19;;;;;;;;;;;;;;;-0.76;59.13;102058.62;4422367;32;20290;-88
2022/03/21 04:13:44;;;;;;;;;;;;;;;-1.01;59.12;102057.37;4422149;32;19993;-88
2022/03/21 04:16:09;;;;;;;;;;;;;;;-1.06;59.11;102065.59;4423141;32;20307;-90
2022/03/21 04:18:35;;;;;;;;;;;;;;;-1.12;59.11;102062.75;4422756;32;19994;-89
2022/03/21 04:21:00;;;;;;;;;;;;;;;-1.33;59.10;102065.91;4409384;32;19996;-89
2022/03/21 04:23:25;;;;;;;;;;;;;;;-1.16;59.11;102066.81;4409183;32;19986;-88
2022/03/21 04:25:50;;;;;;;;;;;;;;;-1.23;59.11;102072.38;4421789;32;25369;-88
2022/03/21 04:28:16;;;;;;;;;;;;;;;-1.24;59.10;102063.84;4422205;32;20008;-87
2022/03/21 04:30:41;;;;;;;;;;;;;;;-1.22;59.11;102069.03;4422001;32;19994;-88
2022/03/21 04:33:09;;;;;;;;;;;;;;;-1.17;59.11;102069.28;4422018;32;19981;-88
2022/03/21 04:35:34;;;;;;;;;;;;;;;-1.19;59.11;102065.75;4422132;32;20560;-88
2022/03/21 04:37:59;;;;;;;;;;;;;;;-1.40;59.09;102075.75;4422284;32;20377;-89
2022/03/21 04:40:24;;;;;;;;;;;;;;;-1.27;59.10;102073.91;4422051;32;19986;-89
2022/03/21 04:42:50;;;;;;;;;;;;;;;-1.05;59.11;102075.03;4422693;32;19980;-90
2022/03/21 04:45:16;;;;;;;;;;;;;;;-1.05;59.11;102075.03;4422865;32;20125;-90
2022/03/21 04:47:42;;;;;;;;;;;;;;;-1.11;59.11;102073.03;4422723;32;20800;-90
2022/03/21 04:50:07;;;;;;;;;;;;;;;-0.97;59.12;102072.06;4422673;32;19985;-88
2022/03/21 04:52:33;;;;;;;;;;;;;;;-1.20;59.11;102075.09;4422923;32;20445;-85
2022/03/21 04:54:59;;;;;;;;;;;;;;;-1.12;59.11;102078.06;4421716;32;20307;-88
2022/03/21 04:57:25;;;;;;;;;;;;;;;-1.18;59.10;102077.72;4421752;32;20048;-88
2022/03/21 04:59:50;;;;;;;;;;;;;;;-1.42;59.09;102082.41;4421593;32;19990;-87
2022/03/21 05:02:15;;;;;;;;;;;;;;;-1.33;59.10;102090.59;4420961;32;20004;-86
2022/03/21 05:04:41;;;;;;;;;;;;;;;-1.32;59.09;102085.56;4421349;32;20028;-86
2022/03/21 05:07:06;;;;;;;;;;;;;;;-1.38;59.09;102082.69;4420913;32;20021;-83
2022/03/21 05:09:32;;;;;;;;;;;;;;;-1.26;59.10;102093.53;4421516;32;20024;-86
2022/03/21 05:11:57;;;;;;;;;;;;;;;-1.02;59.12;102083.72;4421251;32;20012;-87
2022/03/21 05:14:22;;;;;;;;;;;;;;;-1.22;59.10;102092.03;4421202;32;20354;-87
2022/03/21 05:16:47;;;;;;;;;;;;;;;-1.11;59.11;102095.16;4421557;32;20392;-88
2022/03/21 05:19:13;;;;;;;;;;;;;;;-1.08;59.12;102085.97;4421404;32;19985;-89
2022/03/21 05:21:40;;;;;;;;;;;;;;;-1.07;59.12;102086.84;4421575;32;19998;-89
2022/03/21 05:32:17;;;;;;;;;;;;;;;-0.70;59.14;102094.75;4423286;32;19996;-86
2022/03/21 05:37:26;;;;;;;;;;;;;;;-0.17;59.16;102083.75;4423365;32;19996;-87
2022/03/21 05:42:35;;;;;;;;;;;;;;;-0.09;59.16;102093.53;4423233;32;20329;-89
2022/03/21 05:45:01;;;;;;;;;;;;;;;0.19;59.19;102094.87;4423123;32;20009;-87
2022/03/21 05:47:26;;;;;;;;;;;;;;;0.25;59.19;102095.19;4423053;32;20315;-87
2022/03/21 05:49:51;;;;;;;;;;;;;;;0.48;59.20;102094.56;4423188;32;20001;-88
2022/03/21 05:52:17;;;;;;;;;;;;;;;0.64;59.21;102098.69;4422593;32;20033;-88
2022/03/21 05:54:42;;;;;;;;;;;;;;;0.69;59.22;102094.66;4422839;32;20013;-88
2022/03/21 05:57:07;;;;;;;;;;;;;;;0.88;59.22;102081.84;4422773;32;20373;-88
2022/03/21 06:02:17;;;;;;;;;;;;;;;1.13;59.24;102082.94;4423208;32;20360;-88
2022/03/21 06:04:42;;;;;;;;;;;;;;;1.26;59.25;102089.47;4422854;32;20092;-88
2022/03/21 06:07:10;;;;;;;;;;;;;;;1.53;59.26;102085.50;4422520;32;19982;-88
2022/03/21 06:09:35;;;;;;;;;;;;;;;1.64;59.27;102084.25;4422815;32;19990;-87
2022/03/21 06:12:00;;;;;;;;;;;;;;;1.81;59.28;102082.41;4422603;32;20299;-88
2022/03/21 06:14:26;;;;;;;;;;;;;;;2.06;59.31;102085.13;4424543;32;20236;-91
2022/03/21 06:16:51;;;;;;;;;;;;;;;2.41;59.31;102083.97;4423682;32;20004;-91
2022/03/21 06:19:18;;;;;;;;;;;;;;;2.61;59.33;102078.69;4423377;32;19978;-90
2022/03/21 06:21:43;;;;;;;;;;;;;;;2.84;59.34;102090.72;4423830;32;19998;-91
2022/03/21 06:24:12;;;;;;;;;;;;;;;3.08;59.35;102093.31;4424310;32;20019;-90
2022/03/21 06:26:38;;;;;;;;;;;;;;;3.21;59.36;102090.34;4424115;32;19985;-91
2022/03/21 06:29:04;;;;;;;;;;;;;;;3.49;59.38;102084.44;4423947;32;20027;-91
2022/03/21 06:31:29;;;;;;;;;;;;;;;3.68;59.39;102086.81;4423856;32;19996;-91
2022/03/21 06:33:54;;;;;;;;;;;;;;;4.03;59.41;102075.91;4423840;32;19994;-91
2022/03/21 06:36:19;;;;;;;;;;;;;;;4.45;59.43;102084.97;4423643;32;19993;-90
2022/03/21 06:38:44;;;;;;;;;;;;;;;4.61;59.44;102082.00;4423319;32;24878;-91
2022/03/21 06:41:10;;;;;;;;;;;;;;;5.00;59.46;102071.09;4423101;32;27274;-91
2022/03/21 06:43:35;;;;;;;;;;;;;;;5.17;59.48;102071.53;4423525;32;19993;-91
2022/03/21 06:46:00;;;;;;;;;;;;;;;5.30;59.48;102075.34;4410016;32;20000;-91
2022/03/21 06:48:27;;;;;;;;;;;;;;;5.65;59.51;102079.69;4422748;32;19994;-90
2022/03/21 06:50:55;;;;;;;;;;;;;;;5.82;59.51;102075.81;4423218;32;20580;-91
2022/03/21 06:53:20;;;;;;;;;;;;;;;6.17;59.54;102074.97;4422931;32;19990;-92
2022/03/21 06:55:45;;;;;;;;;;;;;;;6.33;59.54;102083.09;4422848;32;20014;-90
2022/03/21 06:58:14;;;;;;;;;;;;;;;6.52;59.56;102079.22;4422505;32;20008;-91
2022/03/21 07:00:39;;;;;;;;;;;;;;;6.61;59.56;102079.38;4422776;32;19984;-91
2022/03/21 07:03:05;;;;;;;;;;;;;;;6.79;59.58;102078.91;4422996;32;20009;-91
2022/03/21 07:05:30;;;;;;;;;;;;;;;7.00;59.58;102081.94;4422827;32;20009;-91
2022/03/21 07:07:55;;;;;;;;;;;;;;;7.10;59.59;102085.59;4422795;32;20001;-90
2022/03/21 07:10:20;;;;;;;;;;;;;;;7.31;59.61;102080.81;4422594;32;19989;-90
2022/03/21 07:12:46;;;;;;;;;;;;;;;7.44;59.61;102075.84;4422445;32;20319;-90
2022/03/21 07:15:11;;;;;;;;;;;;;;;7.27;59.60;102088.50;4422682;32;20012;-91
2022/03/21 07:17:36;;;;;;;;;;;;;;;7.44;59.61;102087.09;4421923;32;28575;-90
2022/03/21 07:20:02;;;;;;;;;;;;;;;7.60;59.62;102077.87;4422505;32;20012;-90
2022/03/21 07:22:28;;;;;;;;;;;;;;;7.80;59.63;102083.38;4422378;32;20142;-90
2022/03/21 07:24:54;;;;;;;;;;;;;;;7.88;59.64;102079.22;4422526;32;20010;-90
2022/03/21 07:27:20;;;;;;;;;;;;;;;7.93;59.64;102083.63;4422513;32;20349;-90
2022/03/21 07:29:45;;;;;;;;;;;;;;;7.95;59.64;102087.09;4422341;32;19974;-89
2022/03/21 07:32:11;;;;;;;;;;;;;;;7.95;59.64;102078.44;4422456;32;20016;-90
2022/03/21 07:34:36;;;;;;;;;;;;;;;8.07;59.65;102078.66;4422487;32;19990;-91
2022/03/21 07:37:01;;;;;;;;;;;;;;;8.14;59.66;102080.50;4422234;32;19985;-90
2022/03/21 07:39:26;;;;;;;;;;;;;;;8.27;59.65;102085.00;4422351;32;20000;-90
2022/03/21 07:41:59;;;;;;;;;;;;;;;8.34;59.66;102075.62;4422130;32;19997;-90
2022/03/21 07:47:20;;;;;;;;;;;;;;;8.42;59.66;102084.37;4422642;32;19996;-91
2022/03/21 07:49:46;;;;;;;;;;;;;;;8.40;59.66;102080.91;4422333;32;19978;-91
2022/03/21 07:52:11;;;;;;;;;;;;;;;8.44;59.67;102087.00;4421688;32;20044;-89
2022/03/21 07:54:36;;;;;;;;;;;;;;;8.63;59.67;102086.41;4422562;32;19996;-91
2022/03/21 07:57:02;;;;;;;;;;;;;;;8.88;59.68;102080.69;4421740;32;27022;-90
2022/03/21 07:59:27;;;;;;;;;;;;;;;9.04;59.69;102086.06;4422478;32;19969;-91
2022/03/21 08:01:52;;;;;;;;;;;;;;;8.91;59.69;102088.50;4409356;32;20073;-90
2022/03/21 08:04:17;;;;;;;;;;;;;;;8.86;59.69;102089.31;4422332;32;19997;-91
2022/03/21 08:06:44;;;;;;;;;;;;;;;9.03;59.70;102089.50;4422180;32;20009;-90
2022/03/21 08:09:09;;;;;;;;;;;;;;;9.03;59.69;102085.19;4422487;32;20622;-91
2022/03/21 08:11:34;;;;;;;;;;;;;;;9.22;59.71;102083.66;4422188;32;19986;-90
2022/03/21 08:13:59;;;;;;;;;;;;;;;9.08;59.70;102086.09;4422422;32;19997;-90
2022/03/21 08:16:24;;;;;;;;;;;;;;;9.02;59.69;102085.19;4422160;32;19993;-90
2022/03/21 08:18:50;;;;;;;;;;;;;;;9.24;59.70;102089.75;4421987;32;20016;-91
2022/03/21 08:21:15;;;;;;;;;;;;;;;9.38;59.72;102082.97;4409462;32;20039;-90
2022/03/21 08:23:42;;;;;;;;;;;;;;;9.42;59.73;102073.47;4422317;32;19982;-91
2022/03/21 08:26:07;;;;;;;;;;;;;;;9.74;59.74;102082.44;4422028;32;19978;-90
2022/03/21 08:28:32;;;;;;;;;;;;;;;9.89;59.75;102078.22;4409143;32;20017;-91
2022/03/21 08:30:58;;;;;;;;;;;;;;;9.92;59.75;102070.44;4421865;32;20016;-90
2022/03/21 08:33:23;;;;;;;;;;;;;;;10.00;59.75;102069.66;4422136;32;20247;-90
2022/03/21 08:35:48;;;;;;;;;;;;;;;10.04;59.76;102071.41;4421336;32;28890;-90
2022/03/21 08:38:13;;;;;;;;;;;;;;;9.96;59.75;102073.09;4421964;32;19982;-90
2022/03/21 08:40:39;;;;;;;;;;;;;;;10.20;59.77;102074.13;4421921;32;20013;-90
2022/03/21 08:43:04;;;;;;;;;;;;;;;10.18;59.77;102061.09;4421803;32;20004;-90
2022/03/21 08:45:29;;;;;;;;;;;;;;;10.31;59.78;102069.88;4422005;32;19982;-91
2022/03/21 08:47:54;;;;;;;;;;;;;;;10.44;59.78;102063.91;4421566;32;19977;-91
2022/03/21 08:50:20;;;;;;;;;;;;;;;10.53;59.78;102055.25;4421538;32;20001;-89
2022/03/21 08:52:46;;;;;;;;;;;;;;;10.68;59.79;102060.53;4421661;32;20013;-91
2022/03/21 08:55:11;;;;;;;;;;;;;;;10.75;59.79;102057.97;4421821;32;19996;-91
2022/03/21 08:57:36;;;;;;;;;;;;;;;10.96;59.81;102045.88;4408800;32;20271;-90
2022/03/21 09:00:04;;;;;;;;;;;;;;;10.93;59.81;102043.25;4421287;32;22744;-91
2022/03/21 09:02:30;;;;;;;;;;;;;;;10.99;59.81;102049.34;4422327;32;19990;-91
2022/03/21 09:04:55;;;;;;;;;;;;;;;11.03;59.81;102047.63;4421025;32;20064;-91
2022/03/21 09:07:21;;;;;;;;;;;;;;;11.07;59.82;102039.81;4421380;32;19984;-90
2022/03/21 09:09:46;;;;;;;;;;;;;;;11.05;59.82;102041.56;4421798;32;20014;-91
2022/03/21 09:12:11;;;;;;;;;;;;;;;11.50;59.83;102034.69;4421729;32;20389;-90
2022/03/21 09:14:36;;;;;;;;;;;;;;;11.60;59.85;102039.03;4421511;32;20002;-91
2022/03/21 09:17:02;;;;;;;;;;;;;;;11.65;59.84;102033.81;4421532;32;19981;-90
2022/03/21 09:19:29;;;;;;;;;;;;;;;11.73;59.85;102037.28;4421602;32;20282;-91
2022/03/21 09:21:54;;;;;;;;;;;;;;;11.72;59.85;102032.94;4421643;32;19996;-90
2022/03/21 09:24:19;;;;;;;;;;;;;;;11.83;59.86;102038.19;4421444;32;20282;-91
2022/03/21 09:26:45;;;;;;;;;;;;;;;11.75;59.85;102030.31;4421431;32;19995;-92
2022/03/21 09:29:10;;;;;;;;;;;;;;;11.92;59.87;102028.62;4421395;32;20032;-91
2022/03/21 09:31:41;;;;;;;;;;;;;;;11.91;59.87;102016.44;4421459;32;20322;-91
2022/03/21 09:34:10;;;;;;;;;;;;;;;11.97;59.88;102011.19;4421240;32;19996;-90
2022/03/21 09:36:35;;;;;;;;;;;;;;;12.18;59.88;102018.12;4421360;32;19974;-91
2022/03/21 09:39:01;;;;;;;;;;;;;;;12.27;59.89;102023.31;4421214;32;20384;-91
2022/03/21 09:41:26;;;;;;;;;;;;;;;12.28;59.88;102014.59;4421089;32;20001;-91
2022/03/21 09:43:52;;;;;;;;;;;;;;;12.21;59.88;102022.47;4421053;32;20044;-91
2022/03/21 09:46:18;;;;;;;;;;;;;;;12.25;59.88;102011.12;4421133;32;19993;-90
2022/03/21 09:49:10;;;;;;;;;;;;;;;12.34;59.89;102007.66;4421116;32;20048;-90
2022/03/21 09:51:36;;;;;;;;;;;;;;;12.26;59.88;102010.25;4419116;32;20326;-91
2022/03/21 09:54:01;;;;;;;;;;;;;;;12.50;59.91;102012.78;4421288;32;19993;-91
2022/03/21 09:56:27;;;;;;;;;;;;;;;12.78;59.91;102007.47;4421086;32;19966;-90
2022/03/21 09:59:01;;;;;;;;;;;;;;;12.71;59.90;102017.06;4421012;32;20252;-91
2022/03/21 10:01:29;;;;;;;;;;;;;;;12.81;59.92;102002.22;4421057;32;19989;-91
2022/03/21 10:03:54;;;;;;;;;;;;;;;12.93;59.92;102003.88;4433630;32;20378;-91
2022/03/21 10:06:27;;;;;;;;;;;;;;;13.06;59.93;101993.34;4420362;32;26478;-91
2022/03/21 10:09:11;;;;;;;;;;;;;;;13.33;59.95;101992.31;4420851;32;20002;-90
2022/03/21 10:11:36;;;;;;;;;;;;;;;13.43;59.95;101995.72;4433561;32;20002;-91
2022/03/21 10:14:21;;;;;;;;;;;;;;;13.60;59.96;101995.59;4420790;32;19989;-91
2022/03/21 10:16:53;;;;;;;;;;;;;;;13.50;59.95;101995.69;4435994;32;19982;-91
2022/03/21 10:19:18;;;;;;;;;;;;;;;13.32;59.94;101985.34;4423115;32;19998;-91
2022/03/21 10:21:47;;;;;;;;;;;;;;;13.50;59.96;101986.97;4423683;32;23330;-91
2022/03/21 10:24:15;;;;;;;;;;;;;;;13.39;59.94;101986.16;4422902;32;19978;-91
2022/03/21 10:26:41;;;;;;;;;;;;;;;13.34;59.95;101977.50;4423236;32;20040;-91
2022/03/21 10:29:09;;;;;;;;;;;;;;;13.42;59.95;101978.28;4422985;32;20010;-91
2022/03/21 10:31:35;;;;;;;;;;;;;;;13.65;59.97;101978.97;4423133;32;20054;-92
2022/03/21 10:34:01;;;;;;;;;;;;;;;13.83;59.97;101973.56;4423115;32;19989;-92
2022/03/21 10:36:26;;;;;;;;;;;;;;;13.96;59.98;101963.84;4422931;32;20299;-91
2022/03/21 10:38:51;;;;;;;;;;;;;;;14.13;59.99;101961.87;4422327;32;25856;-91
2022/03/21 10:41:16;;;;;;;;;;;;;;;14.09;59.99;101954.09;4422762;32;20001;-90
2022/03/21 10:43:52;;;;;;;;;;;;;;;14.34;60.00;101955.53;4422662;32;20314;-91
2022/03/21 10:46:17;;;;;;;;;;;;;;;14.44;60.00;101951.09;4422808;32;19977;-92
2022/03/21 10:48:43;;;;;;;;;;;;;;;14.41;60.01;101943.19;4410051;32;19989;-92
2022/03/21 10:51:08;;;;;;;;;;;;;;;14.58;60.02;101943.03;4422872;32;20004;-92
2022/03/21 10:53:37;;;;;;;;;;;;;;;14.74;60.02;101944.56;4422886;32;20001;-91
2022/03/21 10:56:04;;;;;;;;;;;;;;;14.89;60.03;101932.94;4422702;32;20023;-92
2022/03/21 10:58:43;;;;;;;;;;;;;;;14.95;60.03;101939.00;4422491;32;20016;-92
2022/03/21 11:01:11;;;;;;;;;;;;;;;15.11;60.05;101939.59;4422562;32;19990;-91
2022/03/21 11:03:40;;;;;;;;;;;;;;;15.23;60.05;101928.06;4424084;32;20391;-91
2022/03/21 11:06:06;;;;;;;;;;;;;;;15.13;60.05;101923.84;4422634;32;20349;-91
2022/03/21 11:08:31;;;;;;;;;;;;;;;15.30;60.05;101911.31;4422421;32;25015;-92
2022/03/21 11:10:56;;;;;;;;;;;;;;;15.64;60.07;101909.88;4422717;32;20353;-92
2022/03/21 11:16:06;;;;;;;;;;;;;;;15.89;60.08;101910.28;4422875;32;20508;-91
2022/03/21 11:18:31;;;;;;;;;;;;;;;15.96;60.09;101903.12;4422544;32;20292;-92
2022/03/21 11:20:56;;;;;;;;;;;;;;;15.76;60.09;101903.50;4422611;32;20001;-91
2022/03/21 11:23:22;;;;;;;;;;;;;;;15.75;60.07;101896.53;4422651;32;20300;-92
2022/03/21 11:25:51;;;;;;;;;;;;;;;15.63;60.08;101896.78;4421936;32;20024;-91
2022/03/21 11:28:28;;;;;;;;;;;;;;;15.64;60.08;101895.88;4422457;32;19986;-92
2022/03/21 11:31:00;;;;;;;;;;;;;;;15.61;60.08;101885.41;4422688;32;19990;-91
2022/03/21 11:33:48;;;;;;;;;;;;;;;15.77;60.09;101888.63;4422663;32;20016;-91
2022/03/21 11:36:14;;;;;;;;;;;;;;;15.64;60.08;101895.88;4400757;32;19978;-93
2022/03/21 11:38:41;;;;;;;;;;;;;;;15.34;60.06;101886.75;4422739;32;20011;-92
2022/03/21 11:41:18;;;;;;;;;;;;;;;15.59;60.07;101884.56;4422549;32;20048;-91
2022/03/21 11:43:43;;;;;;;;;;;;;;;15.61;60.08;101888.94;4422607;32;19998;-91
2022/03/21 11:46:19;;;;;;;;;;;;;;;15.49;60.07;101873.38;4422411;32;20036;-92
2022/03/21 11:48:44;;;;;;;;;;;;;;;15.57;60.07;101873.22;4422527;32;19998;-92
2022/03/21 11:51:16;;;;;;;;;;;;;;;15.49;60.07;101868.13;4422367;32;20037;-91
2022/03/21 11:53:49;;;;;;;;;;;;;;;15.56;60.07;101868.84;4422487;32;19982;-92
2022/03/21 11:56:35;;;;;;;;;;;;;;;15.69;60.08;101864.28;4422376;32;20331;-91
2022/03/21 11:59:00;;;;;;;;;;;;;;;15.75;60.08;101864.16;4398735;32;20030;-92
2022/03/21 12:01:28;;;;;;;;;;;;;;;15.41;60.06;101863.91;4422412;32;20060;-91
2022/03/21 12:03:53;;;;;;;;;;;;;;;15.51;60.07;101860.22;4409798;32;19974;-90
2022/03/21 12:06:30;;;;;;;;;;;;;;;15.35;60.06;101864.84;4422457;32;20256;-92
2022/03/21 12:08:59;;;;;;;;;;;;;;;15.46;60.07;101859.44;4422443;32;19990;-92
2022/03/21 12:11:46;;;;;;;;;;;;;;;15.50;60.07;101854.09;4422551;32;20027;-91
2022/03/21 12:14:36;;;;;;;;;;;;;;;15.58;60.07;101852.22;4423407;32;20688;-92
2022/03/21 12:17:01;;;;;;;;;;;;;;;15.72;60.08;101845.84;4422370;32;20058;-92
2022/03/21 12:19:47;;;;;;;;;;;;;;;15.70;60.08;101842.38;4422133;32;20088;-92
2022/03/21 12:22:34;;;;;;;;;;;;;;;15.78;60.08;101827.31;4423711;32;20046;-93
2022/03/21 12:25:00;;;;;;;;;;;;;;;15.77;60.09;101826.47;4422629;32;19981;-92
2022/03/21 12:27:29;;;;;;;;;;;;;;;15.90;60.09;101813.97;4422107;32;19981;-92
2022/03/21 12:30:12;;;;;;;;;;;;;;;16.13;60.10;101803.81;4422199;32;19998;-92
2022/03/21 12:32:46;;;;;;;;;;;;;;;16.13;60.10;101805.59;4422160;32;19994;-92
2022/03/21 12:35:24;;;;;;;;;;;;;;;15.94;60.10;101805.97;4422297;32;19977;-93
2022/03/21 12:37:50;;;;;;;;;;;;;;;15.85;60.09;101795.69;4422090;32;20378;-91
2022/03/21 12:40:17;;;;;;;;;;;;;;;15.67;60.08;101795.19;4422193;32;19994;-92
2022/03/21 12:42:43;;;;;;;;;;;;;;;15.74;60.08;101794.16;4422243;32;19993;-93
2022/03/21 12:45:08;;;;;;;;;;;;;;;15.73;60.08;101795.06;4422024;32;19990;-92
2022/03/21 12:47:36;;;;;;;;;;;;;;;15.49;60.07;101797.25;4421931;32;20009;-92
2022/03/21 12:50:02;;;;;;;;;;;;;;;15.15;60.04;101783.06;4422246;32;20017;-91
2022/03/21 12:52:31;;;;;;;;;;;;;;;15.26;60.05;101787.19;4421979;32;20000;-92
2022/03/21 12:54:57;;;;;;;;;;;;;;;15.17;60.05;101784.75;4422088;32;19996;-91
2022/03/21 12:57:22;;;;;;;;;;;;;;;15.28;60.05;101790.66;4409038;32;19989;-92
2022/03/21 12:59:47;;;;;;;;;;;;;;;15.33;60.06;101783.53;4421992;32;20015;-92
2022/03/21 13:02:25;;;;;;;;;;;;;;;15.48;60.07;101782.41;4421078;32;36380;-91